createdAt,value
2019-06-26T00:01:52.186Z,18.52
2019-06-26T00:04:20.495Z,19.42
2019-06-26T00:06:48.720Z,19.10
2019-06-26T00:09:16.944Z,19.60
2019-06-26T00:11:45.215Z,18.42
2019-06-26T00:14:13.517Z,18.60
2019-06-26T00:16:41.748Z,18.10
2019-06-26T00:19:09.995Z,18.98
2019-06-26T00:21:38.231Z,20.17
2019-06-26T00:24:06.479Z,18.37
2019-06-26T00:26:34.698Z,19.85
2019-06-26T00:29:02.917Z,18.27
2019-06-26T00:31:31.187Z,18.98
2019-06-26T00:33:59.448Z,19.67
2019-06-26T00:36:27.670Z,19.15
2019-06-26T00:38:55.893Z,19.85
2019-06-26T00:41:24.192Z,19.70
2019-06-26T00:43:52.425Z,18.92
2019-06-26T00:46:20.889Z,19.90
2019-06-26T00:48:49.121Z,19.45
2019-06-26T00:51:17.351Z,19.65
2019-06-26T00:53:45.574Z,18.52
2019-06-26T00:56:13.808Z,18.52
2019-06-26T00:58:42.221Z,18.98
2019-06-26T01:01:10.567Z,19.35
2019-06-26T01:03:38.799Z,18.50
2019-06-26T01:06:08.652Z,18.35
2019-06-26T01:08:36.960Z,17.98
2019-06-26T01:11:05.191Z,19.85
2019-06-26T01:13:33.411Z,18.12
2019-06-26T01:16:01.635Z,18.52
2019-06-26T01:18:29.857Z,19.50
2019-06-26T01:20:58.200Z,17.02
2019-06-26T01:23:26.416Z,17.98
2019-06-26T01:25:54.648Z,17.80
2019-06-26T01:28:22.863Z,18.40
2019-06-26T01:30:51.091Z,18.50
2019-06-26T01:33:19.472Z,17.67
2019-06-26T01:35:47.704Z,19.65
2019-06-26T01:38:15.923Z,17.77
2019-06-26T01:40:44.162Z,18.62
2019-06-26T01:43:12.377Z,18.05
2019-06-26T01:45:40.618Z,17.85
2019-06-26T01:48:08.828Z,17.75
2019-06-26T01:50:37.048Z,16.62
2019-06-26T01:53:05.493Z,17.45
2019-06-26T01:55:33.706Z,16.95
2019-06-26T01:58:01.948Z,18.05
2019-06-26T02:00:31.034Z,18.25
2019-06-26T02:02:59.348Z,18.48
2019-06-26T02:05:27.798Z,18.15
2019-06-26T02:07:56.007Z,18.02
2019-06-26T02:10:24.238Z,17.27
2019-06-26T02:12:52.478Z,18.00
2019-06-26T02:15:20.697Z,17.37
2019-06-26T02:17:48.922Z,17.42
2019-06-26T02:20:17.175Z,17.95
2019-06-26T02:22:48.682Z,18.20
2019-06-26T02:25:15.552Z,18.00
2019-06-26T02:27:43.791Z,18.17
2019-06-26T02:30:12.382Z,18.20
2019-06-26T02:32:40.877Z,18.17
2019-06-26T02:35:10.511Z,18.87
2019-06-26T02:37:39.035Z,18.73
2019-06-26T02:40:08.433Z,19.45
2019-06-26T02:42:36.779Z,19.50
2019-06-26T02:45:05.821Z,18.73
2019-06-26T02:47:34.679Z,18.92
2019-06-26T02:50:03.251Z,19.95
2019-06-26T02:52:31.501Z,18.80
2019-06-26T02:54:59.784Z,18.02
2019-06-26T02:57:28.010Z,18.95
2019-06-26T02:59:56.238Z,20.60
2019-06-26T03:02:24.464Z,18.15
2019-06-26T03:04:52.788Z,19.05
2019-06-26T03:07:21.230Z,19.10
2019-06-26T03:09:49.977Z,19.55
2019-06-26T03:12:18.238Z,19.52
2019-06-26T03:14:46.546Z,18.42
2019-06-26T03:17:14.788Z,18.55
2019-06-26T03:19:43.169Z,17.57
2019-06-26T03:22:11.583Z,19.07
2019-06-26T03:24:39.816Z,19.98
2019-06-26T03:27:09.130Z,17.80
2019-06-26T03:29:37.723Z,20.00
2019-06-26T03:32:05.953Z,19.73
2019-06-26T03:34:34.169Z,19.02
2019-06-26T03:37:02.409Z,19.77
2019-06-26T03:39:30.618Z,18.62
2019-06-26T03:41:58.847Z,19.87
2019-06-26T03:44:27.083Z,19.82
2019-06-26T03:46:55.362Z,18.67
2019-06-26T03:49:23.587Z,19.80
2019-06-26T03:51:51.806Z,21.15
2019-06-26T03:54:20.039Z,19.65
2019-06-26T03:56:48.249Z,20.23
2019-06-26T03:59:16.483Z,18.17
2019-06-26T04:01:44.697Z,17.07
2019-06-26T04:04:12.978Z,18.77
2019-06-26T04:06:41.286Z,21.00
2019-06-26T04:09:09.500Z,18.98
2019-06-26T04:11:37.734Z,19.32
2019-06-26T04:14:05.967Z,20.02
2019-06-26T04:16:34.239Z,20.08
2019-06-26T04:19:02.464Z,20.37
2019-06-26T04:21:30.689Z,19.50
2019-06-26T04:23:58.937Z,20.40
2019-06-26T04:26:27.211Z,17.82
2019-06-26T04:28:55.424Z,20.12
2019-06-26T04:31:23.652Z,19.92
2019-06-26T04:33:51.862Z,20.55
2019-06-26T04:36:20.091Z,17.25
2019-06-26T04:38:48.335Z,20.43
2019-06-26T04:41:16.550Z,20.27
2019-06-26T04:43:44.771Z,16.80
2019-06-26T04:46:13.040Z,20.20
2019-06-26T04:48:41.260Z,19.92
2019-06-26T04:51:09.487Z,22.25
2019-06-26T04:53:37.704Z,18.60
2019-06-26T04:56:06.127Z,19.82
2019-06-26T04:58:34.356Z,19.45
2019-06-26T05:01:02.606Z,20.30
2019-06-26T05:03:30.883Z,20.60
2019-06-26T05:05:59.111Z,19.50
2019-06-26T05:08:27.436Z,19.87
2019-06-26T05:10:55.674Z,18.70
2019-06-26T05:13:23.874Z,19.98
2019-06-26T05:15:52.202Z,19.62
2019-06-26T05:18:20.419Z,20.50
2019-06-26T05:20:48.632Z,20.45
2019-06-26T05:23:16.877Z,17.90
2019-06-26T05:25:45.096Z,20.88
2019-06-26T05:28:13.427Z,19.27
2019-06-26T05:30:41.661Z,19.40
2019-06-26T05:33:09.885Z,17.65
2019-06-26T05:35:38.126Z,18.92
2019-06-26T05:38:06.341Z,18.92
2019-06-26T05:40:34.576Z,19.05
2019-06-26T05:43:02.792Z,18.60
2019-06-26T05:45:31.025Z,19.75
2019-06-26T05:48:02.257Z,17.98
2019-06-26T05:50:30.522Z,17.62
2019-06-26T05:52:58.816Z,18.57
2019-06-26T05:55:27.302Z,16.87
2019-06-26T05:57:55.587Z,16.67
2019-06-26T06:00:23.824Z,16.23
2019-06-26T06:02:53.979Z,15.95
2019-06-26T06:05:22.577Z,14.80
2019-06-26T06:07:50.807Z,14.75
2019-06-26T06:10:19.010Z,14.30
2019-06-26T06:12:47.249Z,12.70
2019-06-26T06:15:15.464Z,14.50
2019-06-26T06:17:43.717Z,13.80
2019-06-26T06:20:11.933Z,14.30
2019-06-26T06:22:40.260Z,13.50
2019-06-26T06:25:08.677Z,14.75
2019-06-26T06:27:36.951Z,13.65
2019-06-26T06:30:07.830Z,14.28
2019-06-26T06:32:36.143Z,13.60
2019-06-26T06:35:06.432Z,14.15
2019-06-26T06:37:34.672Z,12.35
2019-06-26T06:40:03.764Z,13.45
2019-06-26T06:42:31.989Z,13.30
2019-06-26T06:45:00.294Z,12.28
2019-06-26T06:47:28.507Z,12.37
2019-06-26T06:49:56.757Z,12.60
2019-06-26T06:52:24.990Z,13.28
2019-06-26T06:54:53.207Z,12.28
2019-06-26T06:57:21.484Z,12.25
2019-06-26T06:59:49.723Z,12.25
2019-06-26T07:02:17.923Z,11.53
2019-06-26T07:04:46.195Z,11.97
2019-06-26T07:07:14.638Z,11.10
2019-06-26T07:09:42.856Z,11.20
2019-06-26T07:12:11.099Z,11.08
2019-06-26T07:14:39.494Z,10.48
2019-06-26T07:17:20.093Z,10.82
2019-06-26T07:19:38.825Z,10.58
2019-06-26T07:22:07.525Z,10.30
2019-06-26T07:24:37.350Z,10.03
2019-06-26T07:27:05.582Z,10.05
2019-06-26T07:29:34.063Z,10.15
2019-06-26T07:32:02.497Z,10.88
2019-06-26T07:34:31.230Z,10.30
2019-06-26T07:36:59.660Z,9.73
2019-06-26T07:39:28.208Z,10.45
2019-06-26T07:41:56.472Z,10.03
2019-06-26T07:44:24.736Z,8.95
2019-06-26T07:46:53.390Z,8.58
2019-06-26T07:49:21.729Z,7.92
2019-06-26T07:51:49.996Z,8.65
2019-06-26T07:54:18.391Z,8.43
2019-06-26T07:56:47.236Z,8.98
2019-06-26T07:59:15.497Z,8.43
2019-06-26T08:01:43.895Z,7.78
2019-06-26T08:04:12.106Z,8.38
2019-06-26T08:06:40.549Z,7.55
2019-06-26T08:09:09.192Z,7.70
2019-06-26T08:11:37.630Z,7.55
2019-06-26T08:14:05.835Z,7.20
2019-06-26T08:16:34.549Z,7.33
2019-06-26T08:19:03.319Z,7.87
2019-06-26T08:21:31.641Z,6.83
2019-06-26T08:23:59.903Z,6.97
2019-06-26T08:26:28.234Z,7.33
2019-06-26T08:28:56.426Z,7.60
2019-06-26T08:31:24.661Z,7.25
2019-06-26T08:33:53.087Z,7.20
2019-06-26T08:36:21.671Z,7.15
2019-06-26T08:38:49.878Z,6.15
2019-06-26T08:41:18.111Z,7.17
2019-06-26T08:43:46.332Z,6.50
2019-06-26T08:46:14.552Z,6.60
2019-06-26T08:48:42.790Z,7.10
2019-06-26T08:51:10.998Z,6.30
2019-06-26T08:53:39.252Z,6.30
2019-06-26T08:56:07.546Z,7.42
2019-06-26T08:58:35.779Z,6.33
2019-06-26T09:01:04.033Z,6.55
2019-06-26T09:03:32.332Z,6.70
2019-06-26T09:06:02.180Z,6.92
2019-06-26T09:08:31.160Z,7.37
2019-06-26T09:10:59.620Z,6.67
2019-06-26T09:13:27.933Z,6.53
2019-06-26T09:15:56.185Z,6.85
2019-06-26T09:18:35.070Z,7.30
2019-06-26T09:20:55.116Z,6.53
2019-06-26T09:23:23.337Z,6.35
2019-06-26T09:25:51.634Z,7.40
2019-06-26T09:28:19.871Z,6.72
2019-06-26T09:30:48.076Z,6.42
2019-06-26T09:33:16.369Z,6.03
2019-06-26T09:35:44.678Z,7.05
2019-06-26T09:38:13.013Z,6.22
2019-06-26T09:40:41.359Z,7.30
2019-06-26T09:43:09.649Z,7.60
2019-06-26T09:45:37.890Z,6.75
2019-06-26T09:48:06.229Z,6.80
2019-06-26T09:50:34.971Z,7.12
2019-06-26T09:53:05.431Z,6.28
2019-06-26T09:55:33.281Z,6.75
2019-06-26T09:58:01.517Z,7.05
2019-06-26T10:00:30.699Z,7.00
2019-06-26T10:02:58.994Z,6.28
2019-06-26T10:05:27.207Z,7.90
2019-06-26T10:07:56.010Z,6.35
2019-06-26T10:10:24.251Z,6.80
2019-06-26T10:12:52.554Z,6.25
2019-06-26T10:15:20.946Z,7.45
2019-06-26T10:17:49.512Z,6.87
2019-06-26T10:20:18.601Z,6.15
2019-06-26T10:22:47.282Z,6.85
2019-06-26T10:25:15.513Z,6.47
2019-06-26T10:27:44.042Z,5.72
2019-06-26T10:30:12.568Z,6.83
2019-06-26T10:32:40.801Z,5.65
2019-06-26T10:35:09.597Z,5.95
2019-06-26T10:37:37.807Z,6.08
2019-06-26T10:40:06.214Z,5.62
2019-06-26T10:42:34.607Z,5.40
2019-06-26T10:45:03.300Z,5.65
2019-06-26T10:47:31.528Z,4.70
2019-06-26T10:49:59.815Z,5.30
2019-06-26T10:52:28.034Z,5.75
2019-06-26T10:54:56.268Z,5.20
2019-06-26T10:57:24.494Z,5.95
2019-06-26T10:59:55.623Z,5.50
2019-06-26T11:02:22.681Z,5.42
2019-06-26T11:04:50.961Z,4.97
2019-06-26T11:07:19.217Z,5.53
2019-06-26T11:09:47.458Z,5.25
2019-06-26T11:12:15.671Z,4.72
2019-06-26T11:14:44.031Z,5.12
2019-06-26T11:17:12.306Z,5.50
2019-06-26T11:19:44.400Z,4.70
2019-06-26T11:22:10.782Z,4.65
2019-06-26T11:24:39.075Z,4.53
2019-06-26T11:27:07.745Z,5.08
2019-06-26T11:29:35.974Z,4.75
2019-06-26T11:32:04.260Z,4.15
2019-06-26T11:34:32.518Z,4.80
2019-06-26T11:37:04.224Z,5.03
2019-06-26T11:39:31.225Z,5.12
2019-06-26T11:41:59.517Z,4.95
2019-06-26T11:44:27.815Z,4.80
2019-06-26T11:46:56.412Z,4.60
2019-06-26T11:49:24.894Z,4.45
2019-06-26T11:51:53.248Z,4.30
2019-06-26T11:54:21.724Z,5.33
2019-06-26T11:56:49.993Z,4.75
2019-06-26T11:59:18.262Z,4.75
2019-06-26T12:01:46.572Z,4.28
2019-06-26T12:04:14.844Z,4.30
2019-06-26T12:06:45.977Z,4.15
2019-06-26T12:09:13.302Z,4.33
2019-06-26T12:11:41.829Z,4.45
2019-06-26T12:14:10.167Z,4.80
2019-06-26T12:16:38.658Z,4.50
2019-06-26T12:19:06.968Z,4.65
2019-06-26T12:21:35.263Z,6.28
2019-06-26T12:24:03.620Z,4.55
2019-06-26T12:26:32.054Z,4.37
2019-06-26T12:29:00.385Z,4.87
2019-06-26T12:31:28.637Z,4.67
2019-06-26T12:33:56.972Z,4.97
2019-06-26T12:36:25.525Z,4.55
2019-06-26T12:38:53.893Z,5.12
2019-06-26T12:41:22.134Z,5.40
2019-06-26T12:43:50.443Z,5.53
2019-06-26T12:46:19.763Z,5.20
2019-06-26T12:48:48.020Z,5.28
2019-06-26T12:51:16.362Z,5.17
2019-06-26T12:53:44.997Z,5.25
2019-06-26T12:56:13.337Z,4.97
2019-06-26T12:58:41.586Z,5.08
2019-06-26T13:01:09.846Z,4.72
2019-06-26T13:03:38.133Z,5.00
2019-06-26T13:06:06.452Z,5.83
2019-06-26T13:08:34.888Z,4.58
2019-06-26T13:11:03.162Z,5.35
2019-06-26T13:13:31.442Z,5.22
2019-06-26T13:15:59.747Z,5.87
2019-06-26T13:18:28.345Z,6.37
2019-06-26T13:20:57.645Z,6.28
2019-06-26T13:23:26.061Z,6.22
2019-06-26T13:25:55.342Z,7.00
2019-06-26T13:28:23.664Z,6.67
2019-06-26T13:30:53.352Z,6.83
2019-06-26T13:33:22.041Z,7.40
2019-06-26T13:35:50.328Z,6.12
2019-06-26T13:38:18.554Z,5.53
2019-06-26T13:40:46.847Z,6.33
2019-06-26T13:43:15.138Z,6.95
2019-06-26T13:45:43.395Z,5.65
2019-06-26T13:48:11.651Z,5.85
2019-06-26T13:50:41.111Z,7.33
2019-06-26T13:53:09.503Z,6.30
2019-06-26T13:55:37.809Z,5.50
2019-06-26T13:58:06.017Z,6.47
2019-06-26T14:00:34.289Z,6.55
2019-06-26T14:03:02.535Z,5.90
2019-06-26T14:05:30.817Z,6.75
2019-06-26T14:07:59.333Z,5.85
2019-06-26T14:10:27.883Z,6.30
2019-06-26T14:12:56.822Z,5.97
2019-06-26T14:15:25.304Z,6.62
2019-06-26T14:17:53.668Z,6.12
2019-06-26T14:20:21.952Z,6.92
2019-06-26T14:22:50.364Z,5.40
2019-06-26T14:25:18.809Z,5.08
2019-06-26T14:27:47.682Z,5.80
2019-06-26T14:30:15.987Z,5.83
2019-06-26T14:32:44.210Z,4.90
2019-06-26T14:35:12.686Z,5.40
2019-06-26T14:37:41.016Z,5.08
2019-06-26T14:40:09.315Z,5.15
2019-06-26T14:42:37.740Z,5.80
2019-06-26T14:45:09.788Z,4.90
2019-06-26T14:47:38.328Z,4.30
2019-06-26T14:50:06.956Z,6.25
2019-06-26T14:52:35.301Z,5.55
2019-06-26T14:55:05.364Z,4.70
2019-06-26T14:57:33.618Z,5.22
2019-06-26T15:00:01.891Z,5.00
2019-06-26T15:02:31.955Z,5.72
2019-06-26T15:05:00.106Z,5.45
2019-06-26T15:07:28.385Z,5.12
2019-06-26T15:09:56.702Z,4.97
2019-06-26T15:12:25.003Z,5.62
2019-06-26T15:15:03.176Z,5.05
2019-06-26T15:17:31.390Z,5.45
2019-06-26T15:20:00.628Z,5.75
2019-06-26T15:22:28.842Z,5.45
2019-06-26T15:24:57.181Z,5.90
2019-06-26T15:27:25.437Z,5.92
2019-06-26T15:29:54.078Z,5.90
2019-06-26T15:32:22.438Z,5.53
2019-06-26T15:34:50.870Z,6.40
2019-06-26T15:37:19.183Z,5.58
2019-06-26T15:39:47.469Z,5.37
2019-06-26T15:42:15.752Z,5.92
2019-06-26T15:44:44.471Z,5.03
2019-06-26T15:47:12.688Z,4.60
2019-06-26T15:49:41.959Z,5.37
2019-06-26T15:52:15.175Z,5.60
2019-06-26T15:54:40.351Z,6.12
2019-06-26T15:57:08.586Z,6.60
2019-06-26T15:59:37.129Z,6.47
2019-06-26T16:02:05.366Z,5.17
2019-06-26T16:04:35.244Z,5.58
2019-06-26T16:07:03.986Z,5.65
2019-06-26T16:09:32.290Z,5.60
2019-06-26T16:12:00.523Z,5.17
2019-06-26T16:14:28.755Z,5.65
2019-06-26T16:16:58.931Z,6.12
2019-06-26T16:19:27.321Z,6.05
2019-06-26T16:21:55.894Z,5.95
2019-06-26T16:24:24.150Z,5.25
2019-06-26T16:26:52.383Z,6.17
2019-06-26T16:29:20.718Z,7.10
2019-06-26T16:31:48.960Z,6.10
2019-06-26T16:34:17.180Z,6.25
2019-06-26T16:36:45.444Z,6.72
2019-06-26T16:39:13.705Z,7.17
2019-06-26T16:41:42.092Z,6.67
2019-06-26T16:44:10.339Z,6.97
2019-06-26T16:46:38.605Z,7.60
2019-06-26T16:49:07.006Z,7.60
2019-06-26T16:51:36.135Z,7.67
2019-06-26T16:54:04.395Z,7.53
2019-06-26T16:56:32.660Z,8.20
2019-06-26T16:59:00.917Z,6.50
2019-06-26T17:01:29.221Z,6.78
2019-06-26T17:03:57.456Z,7.22
2019-06-26T17:06:25.967Z,7.80
2019-06-26T17:08:54.251Z,7.62
2019-06-26T17:11:22.827Z,7.97
2019-06-26T17:13:51.048Z,7.62
2019-06-26T17:16:19.260Z,7.45
2019-06-26T17:18:47.654Z,7.45
2019-06-26T17:21:15.971Z,6.85
2019-06-26T17:23:45.303Z,8.93
2019-06-26T17:26:13.536Z,8.20
2019-06-26T17:28:41.771Z,8.28
2019-06-26T17:31:09.988Z,8.20
2019-06-26T17:33:38.226Z,8.35
2019-06-26T17:36:07.523Z,8.60
2019-06-26T17:38:35.749Z,8.10
2019-06-26T17:41:03.960Z,7.75
2019-06-26T17:43:32.223Z,7.65
2019-06-26T17:46:00.457Z,7.15
2019-06-26T17:48:28.665Z,7.90
2019-06-26T17:50:56.913Z,7.37
2019-06-26T17:53:25.850Z,7.05
2019-06-26T17:55:54.065Z,6.33
2019-06-26T17:58:25.257Z,5.30
2019-06-26T18:00:52.217Z,4.78
2019-06-26T18:03:21.483Z,5.15
2019-06-26T18:05:49.843Z,4.47
2019-06-26T18:08:18.155Z,4.33
2019-06-26T18:10:46.367Z,3.85
2019-06-26T18:13:14.611Z,3.90
2019-06-26T18:15:42.936Z,3.72
2019-06-26T18:18:12.228Z,3.80
2019-06-26T18:20:40.480Z,3.25
2019-06-26T18:23:08.742Z,4.12
2019-06-26T18:25:37.125Z,4.00
2019-06-26T18:28:06.376Z,3.47
2019-06-26T18:30:34.618Z,3.12
2019-06-26T18:33:02.855Z,3.87
2019-06-26T18:35:31.097Z,3.22
2019-06-26T18:37:59.452Z,3.30
2019-06-26T18:40:28.839Z,3.52
2019-06-26T18:42:57.082Z,2.87
2019-06-26T18:45:25.351Z,3.00
2019-06-26T18:47:53.579Z,3.12
2019-06-26T18:50:21.808Z,2.60
2019-06-26T18:52:50.047Z,3.00
2019-06-26T18:55:19.345Z,3.30
2019-06-26T18:57:47.642Z,3.30
2019-06-26T19:00:16.148Z,3.40
2019-06-26T19:02:44.369Z,3.40
2019-06-26T19:05:13.199Z,3.22
2019-06-26T19:07:41.415Z,3.42
2019-06-26T19:10:09.796Z,4.55
2019-06-26T19:12:38.085Z,4.08
2019-06-26T19:15:07.763Z,3.72
2019-06-26T19:17:36.363Z,3.95
2019-06-26T19:20:07.657Z,3.77
2019-06-26T19:22:35.925Z,3.80
2019-06-26T19:25:05.699Z,3.15
2019-06-26T19:27:33.928Z,3.55
2019-06-26T19:30:03.287Z,4.05
2019-06-26T19:32:31.503Z,3.72
2019-06-26T19:35:07.997Z,3.98
2019-06-26T19:37:30.128Z,4.28
2019-06-26T19:39:58.424Z,4.80
2019-06-26T19:42:26.879Z,4.42
2019-06-26T19:44:55.098Z,4.20
2019-06-26T19:47:23.791Z,4.25
2019-06-26T19:49:52.012Z,4.17
2019-06-26T19:52:20.561Z,4.75
2019-06-26T19:54:48.789Z,3.90
2019-06-26T19:57:16.986Z,4.12
2019-06-26T19:59:45.223Z,4.15
2019-06-26T20:02:13.438Z,4.17
2019-06-26T20:04:41.651Z,3.55
2019-06-26T20:07:09.955Z,4.28
2019-06-26T20:09:38.161Z,4.17
2019-06-26T20:12:06.506Z,4.03
2019-06-26T20:14:34.752Z,4.70
2019-06-26T20:17:03.004Z,4.45
2019-06-26T20:19:31.278Z,4.42
2019-06-26T20:21:59.568Z,3.83
2019-06-26T20:24:42.799Z,4.10
2019-06-26T20:26:57.925Z,3.72
2019-06-26T20:29:26.142Z,4.20
2019-06-26T20:31:55.149Z,3.83
2019-06-26T20:34:23.364Z,3.60
2019-06-26T20:36:51.827Z,3.58
2019-06-26T20:39:39.552Z,3.92
2019-06-26T20:42:08.873Z,4.28
2019-06-26T20:44:37.238Z,4.15
2019-06-26T20:47:06.460Z,4.00
2019-06-26T20:49:34.730Z,4.60
2019-06-26T20:52:02.942Z,5.87
2019-06-26T20:54:31.254Z,3.98
2019-06-26T20:56:59.510Z,4.97
2019-06-26T20:59:27.714Z,4.05
2019-06-26T21:01:55.950Z,4.83
2019-06-26T21:04:24.240Z,3.15
2019-06-26T21:06:52.443Z,3.30
2019-06-26T21:09:20.793Z,3.87
2019-06-26T21:11:49.049Z,3.20
2019-06-26T21:14:17.248Z,3.25
2019-06-26T21:16:45.485Z,3.35
2019-06-26T21:19:13.700Z,3.35
2019-06-26T21:21:41.934Z,4.55
2019-06-26T21:24:10.253Z,3.80
2019-06-26T21:26:39.466Z,3.98
2019-06-26T21:29:07.706Z,3.27
2019-06-26T21:31:36.005Z,3.92
2019-06-26T21:34:04.232Z,3.67
2019-06-26T21:36:32.435Z,3.83
2019-06-26T21:39:00.713Z,4.00
2019-06-26T21:41:30.033Z,3.75
2019-06-26T21:43:58.297Z,3.95
2019-06-26T21:46:26.519Z,3.65
2019-06-26T21:48:54.739Z,3.90
2019-06-26T21:51:22.965Z,4.15
2019-06-26T21:53:51.328Z,3.42
2019-06-26T21:56:19.911Z,4.37
2019-06-26T21:58:48.789Z,4.70
2019-06-26T22:01:17.006Z,4.60
2019-06-26T22:03:45.277Z,4.37
2019-06-26T22:06:13.507Z,3.80
2019-06-26T22:08:41.716Z,3.67
2019-06-26T22:11:09.957Z,3.67
2019-06-26T22:13:38.158Z,4.20
2019-06-26T22:16:06.447Z,4.17
2019-06-26T22:18:34.654Z,3.47
2019-06-26T22:21:03.507Z,3.92
2019-06-26T22:23:31.721Z,4.15
2019-06-26T22:25:59.945Z,3.83
2019-06-26T22:28:28.170Z,3.08
2019-06-26T22:30:56.750Z,3.62
2019-06-26T22:33:24.976Z,3.60
2019-06-26T22:35:53.202Z,3.80
2019-06-26T22:38:21.408Z,3.92
2019-06-26T22:40:49.661Z,3.92
2019-06-26T22:43:17.955Z,4.33
2019-06-26T22:45:46.197Z,3.42
2019-06-26T22:48:14.479Z,3.72
2019-06-26T22:50:42.747Z,3.37
2019-06-26T22:53:11.042Z,4.45
2019-06-26T22:55:39.296Z,3.80
2019-06-26T22:58:07.529Z,4.00
2019-06-26T23:00:35.769Z,3.90
2019-06-26T23:03:04.011Z,4.28
2019-06-26T23:05:32.304Z,3.92
2019-06-26T23:08:01.403Z,4.42
2019-06-26T23:10:29.685Z,3.83
2019-06-26T23:12:58.999Z,3.65
2019-06-26T23:15:27.224Z,4.55
2019-06-26T23:17:56.055Z,4.05
2019-06-26T23:20:24.338Z,3.35
2019-06-26T23:22:52.556Z,3.77
2019-06-26T23:25:21.192Z,3.72
2019-06-26T23:27:49.424Z,4.12
2019-06-26T23:30:18.082Z,3.70
2019-06-26T23:32:46.602Z,3.75
2019-06-26T23:35:14.877Z,3.67
2019-06-26T23:37:43.271Z,3.55
2019-06-26T23:40:11.481Z,3.40
2019-06-26T23:42:39.715Z,3.55
2019-06-26T23:45:07.965Z,3.80
2019-06-26T23:47:36.181Z,3.83
2019-06-26T23:50:05.249Z,3.92
2019-06-26T23:52:33.464Z,4.45
2019-06-26T23:55:01.981Z,3.40
2019-06-26T23:57:30.286Z,3.52
2019-06-26T23:59:58.571Z,3.98
